Kota Taipei, Taiwan

09:27 PM CST on Juli 06, 2015 (GMT +0800)
ITAIPEIT2 | | Change Station
CLOSE
Current Station
Personal Weather Stations
Location: Taipei Da'An, Taiwan
Elevation: 30 ft
Nearby Weather Stations

Elev 30 ft 25.03 °N, 121.53 °E | Updated 1 minute ago

Mostly Cloudy
Mendung Merata
87.1 °F
Feels Like 99 °F
N
1.0
Angin Variable Angin from Arah Timur
Gusts 4.0 mph

Siang Ini
High -- | Low -- °F
--% Chance of Precip.
Yesterday
High -- | Low -- °F
Precip. -- Inch
5:09 AM 6:47 PM
Waning Gibbous, 75% visible
Tekanan 29.50 Inch
Jarak Pandang 6.2 Mil
Awan Few 2000 ft
Mendung Merata 20000 ft
Ideks Panas 99 °F
Titik Embun 77 °F
Kelembaban 72%
Rainfall 0.00 Inch
Snow Depth Not available.
UV 0.0 out of 12
Pollen Not available.
Air Quality Not available.
Flu Activity Not available.
METAR RCSS 061300Z 10008KT 9999 FEW020 BKN200 30/23 Q0999 NOSIG RMK A2952

More Conditions Fewer Conditions

Tekanan 29.50 Inch
Jarak Pandang 6.2 Mil
Awan Few 2000 ft
Mendung Merata 20000 ft
Ideks Panas 99 °F
Titik Embun 77 °F
Kelembaban 72%
Rainfall 0.00 Inch
Snow Depth Not available.
UV 0.0 out of 12
Pollen Not available.
Air Quality Not available.
Flu Activity Not available.
METAR RCSS 061300Z 10008KT 9999 FEW020 BKN200 30/23 Q0999 NOSIG RMK A2952

More Conditions Fewer Conditions

10-Day Weather Forecast

×

Almanac

Astronomi

Jul. 06, 2015 Rise Set
Actual Time
Civil Twilight
Nautical Twilight
Astronomical Twilight
Moon
Length Of Visible Light
Lama Satu Hari
Tomorrow will be .
, % of the Moon is Illuminated

Today's Extremes

Country Highs Country Lows

Community

WunderPhotos

Upload Photos

1,835,555 photos uploaded!

WunderBlogs® & News

Nearby

Air Quality

  Air Quality AQ Index Pollutant
Not available.

Snow Depth

Station Depth Elevation

Earthquake Activity

City Distance Mag. Time & Date
Minimum magnitude displayed is 2.5.

Coastal Water Temperatures

Lokasi Temperatur

Stations

Nearby Weather Stations

Station Location Temp Angin Dingin Titik Embun Kelembaban Angin Precip. Elev Telah Diperbaharui Type